Time;durP1;ratioP1;P1;durP2;ratioP2;P2;SDS_P1;SDS_P2;PMS_P1;PMS_P2;Temp;Humidity;BMP_temperature;BMP_pressure;BME280_temperature;BME280_humidity;BME280_pressure;Samples;Min_cycle;Max_cycle;Signal;HPM_P1;HPM_P2
2021/06/26 00:00:31;;;;;;;14.70;11.65;;;;;;;14.34;78.67;101167.97;5097024;28;20040;-48
2021/06/26 00:02:57;;;;;;;15.05;11.70;;;;;;;14.23;79.38;101176.88;5068162;28;20052;-48
2021/06/26 00:05:23;;;;;;;15.77;11.27;;;;;;;14.13;79.11;101175.22;5096408;28;20408;-48
2021/06/26 00:07:49;;;;;;;18.00;11.25;;;;;;;14.39;77.88;101172.28;5097285;28;20035;-48
2021/06/26 00:10:15;;;;;;;16.92;11.00;;;;;;;14.32;78.34;101165.38;5098999;28;20081;-48
2021/06/26 00:12:40;;;;;;;15.55;12.32;;;;;;;14.25;78.80;101164.56;5097420;27;20040;-48
2021/06/26 00:15:09;;;;;;;14.73;11.60;;;;;;;14.21;79.63;101162.88;5078921;28;20040;-50
2021/06/26 00:17:36;;;;;;;14.80;11.93;;;;;;;14.08;79.97;101170.03;5095731;28;20094;-48
2021/06/26 00:20:04;;;;;;;17.80;12.32;;;;;;;14.02;79.81;101163.97;5096973;28;20085;-49
2021/06/26 00:22:29;;;;;;;14.15;10.98;;;;;;;14.34;77.40;101162.72;5080644;28;20331;-50
2021/06/26 00:24:55;;;;;;;14.68;12.15;;;;;;;14.29;78.85;101162.78;5092783;27;20042;-50
2021/06/26 00:27:20;;;;;;;14.85;11.98;;;;;;;14.08;79.02;101162.16;5097145;28;20365;-48
2021/06/26 00:29:46;;;;;;;14.40;10.80;;;;;;;14.34;77.53;101162.72;5078566;28;20082;-49
2021/06/26 00:32:12;;;;;;;18.33;11.98;;;;;;;14.13;79.35;101170.81;5097128;27;20440;-49
2021/06/26 00:34:40;;;;;;;16.67;11.82;;;;;;;14.33;76.90;101171.50;5098202;28;20252;-48
2021/06/26 00:37:05;;;;;;;17.40;12.70;;;;;;;14.26;77.67;101166.31;5095027;28;20130;-48
2021/06/26 00:39:31;;;;;;;15.73;12.25;;;;;;;14.49;75.91;101159.88;5096377;27;20575;-49
2021/06/26 00:41:56;;;;;;;15.30;11.60;;;;;;;14.59;76.34;101169.41;5093484;28;20046;-48
2021/06/26 00:44:27;;;;;;;15.27;12.05;;;;;;;14.32;77.19;101162.75;5096637;28;20556;-48
2021/06/26 00:46:52;;;;;;;18.02;13.10;;;;;;;14.19;77.80;101159.41;5097339;27;20089;-48
2021/06/26 00:49:18;;;;;;;18.90;12.98;;;;;;;14.29;77.97;101160.16;5080035;28;20039;-49
2021/06/26 00:51:44;;;;;;;17.52;12.77;;;;;;;14.22;78.03;101154.09;5097043;28;20076;-47
2021/06/26 00:54:09;;;;;;;16.35;12.77;;;;;;;14.14;78.68;101150.69;5084166;28;20042;-51
2021/06/26 00:56:35;;;;;;;18.33;13.50;;;;;;;14.13;78.22;101155.06;5080937;28;20031;-49
2021/06/26 00:59:02;;;;;;;17.75;13.43;;;;;;;14.09;79.18;101160.38;5097776;28;20483;-48
2021/06/26 01:01:28;;;;;;;15.55;12.77;;;;;;;14.14;78.99;101158.56;5097228;28;20479;-49
2021/06/26 01:03:56;;;;;;;17.27;13.10;;;;;;;14.12;78.30;101158.59;5095782;27;20040;-49
2021/06/26 01:06:22;;;;;;;20.02;13.50;;;;;;;14.15;78.13;101157.69;5095830;28;20043;-48
2021/06/26 01:08:49;;;;;;;17.60;12.47;;;;;;;14.12;78.14;101155.06;5095363;28;20032;-51
2021/06/26 01:11:15;;;;;;;17.13;13.10;;;;;;;14.24;78.82;101152.31;5094717;28;20108;-49
2021/06/26 01:13:41;;;;;;;20.30;13.80;;;;;;;14.08;78.53;101156.91;5097343;28;20169;-49
2021/06/26 01:16:06;;;;;;;18.30;13.00;;;;;;;14.15;78.29;101162.97;5096481;27;20126;-49
2021/06/26 01:18:32;;;;;;;17.23;13.32;;;;;;;14.12;79.64;101157.72;5096282;28;20389;-49
2021/06/26 01:20:58;;;;;;;15.10;11.80;;;;;;;14.25;77.07;101159.31;5098225;28;20496;-49
2021/06/26 01:23:25;;;;;;;19.17;13.20;;;;;;;14.09;79.21;101160.38;5098269;28;20047;-50
2021/06/26 01:25:51;;;;;;;17.70;13.07;;;;;;;14.19;78.15;101156.78;5096629;27;20074;-49
2021/06/26 01:28:16;;;;;;;18.90;13.85;;;;;;;14.22;79.36;101159.34;5099210;28;20146;-48
2021/06/26 01:30:46;;;;;;;18.15;13.38;;;;;;;14.13;78.48;101155.06;5095802;28;20027;-49
2021/06/26 01:33:13;;;;;;;15.77;12.48;;;;;;;14.29;78.25;101157.53;5095393;28;20045;-48
2021/06/26 01:35:39;;;;;;;16.98;13.00;;;;;;;14.36;77.17;101153.03;5097276;28;20432;-49
2021/06/26 01:38:04;;;;;;;15.80;12.27;;;;;;;14.55;75.99;101158.94;5079575;28;20148;-49
2021/06/26 01:40:30;;;;;;;18.02;12.63;;;;;;;14.23;77.22;101158.47;5078368;28;20035;-49
2021/06/26 01:42:56;;;;;;;18.48;13.40;;;;;;;14.33;77.08;101158.34;5077059;28;20039;-48
2021/06/26 01:45:26;;;;;;;18.77;14.25;;;;;;;14.45;77.48;101159.06;5097371;28;20043;-49
2021/06/26 01:47:56;;;;;;;18.25;13.43;;;;;;;14.30;78.48;101157.50;5070926;28;20063;-48
2021/06/26 01:50:26;;;;;;;19.45;13.73;;;;;;;14.29;77.87;101166.28;5095313;28;20058;-49
2021/06/26 01:52:52;;;;;;;18.92;13.98;;;;;;;14.20;78.11;101166.38;5096308;28;20040;-50
2021/06/26 01:55:22;;;;;;;17.17;13.75;;;;;;;14.02;79.13;101151.69;5077614;28;20119;-50
2021/06/26 01:57:49;;;;;;;21.83;15.00;;;;;;;14.01;79.29;101151.72;5096218;28;20051;-51
2021/06/26 02:00:17;;;;;;;22.23;15.20;;;;;;;13.95;79.84;101150.88;5097040;28;20384;-49
2021/06/26 02:02:43;;;;;;;16.80;13.38;;;;;;;13.90;79.69;101154.44;5097831;28;20320;-50
2021/06/26 02:05:10;;;;;;;20.10;13.85;;;;;;;13.92;81.04;101156.19;5095573;28;20032;-51
2021/06/26 02:07:36;;;;;;;18.67;13.95;;;;;;;14.24;77.46;101147.03;5085210;28;21363;-48
2021/06/26 02:10:05;;;;;;;;;;;;;;;13.85;80.04;101141.38;5079805;28;20427;-50
2021/06/26 02:12:31;;;;;;;19.42;13.73;;;;;;;13.63;81.75;101143.34;5096732;28;19923;-49
2021/06/26 02:14:57;;;;;;;20.38;14.27;;;;;;;13.55;81.09;101146.03;5098270;28;20442;-51
2021/06/26 02:17:23;;;;;;;21.73;14.82;;;;;;;13.52;82.04;101146.06;5081252;28;20124;-49
2021/06/26 02:19:49;;;;;;;18.63;13.98;;;;;;;13.34;81.94;101144.44;5098975;28;20024;-50
2021/06/26 02:22:16;;;;;;;19.73;14.23;;;;;;;13.23;82.98;101149.78;5096580;28;20024;-50
2021/06/26 02:24:42;;;;;;;17.13;13.95;;;;;;;13.24;81.81;101148.91;5099055;27;20125;-53
2021/06/26 02:27:08;;;;;;;18.77;13.63;;;;;;;13.34;81.00;101156.72;5083837;28;20039;-49
2021/06/26 02:29:33;;;;;;;18.33;13.27;;;;;;;13.34;81.20;101156.72;5099764;28;20028;-49
2021/06/26 02:31:59;;;;;;;18.27;13.57;;;;;;;13.33;80.51;101150.56;5101201;27;20050;-51
2021/06/26 02:34:25;;;;;;;18.52;13.52;;;;;;;13.29;81.21;101155.00;5101636;28;20019;-49
2021/06/26 02:36:51;;;;;;;17.98;12.75;;;;;;;13.36;80.44;101152.34;5096129;28;20146;-49
2021/06/26 02:39:18;;;;;;;19.60;13.35;;;;;;;13.47;79.58;101155.72;5099431;27;20067;-49
2021/06/26 02:41:44;;;;;;;18.85;14.38;;;;;;;13.31;81.03;101151.50;5100045;28;20132;-51
2021/06/26 02:44:10;;;;;;;21.13;14.07;;;;;;;13.37;80.71;101154.09;5078865;28;20443;-50
2021/06/26 02:46:35;;;;;;;17.70;13.18;;;;;;;13.15;82.32;101156.84;5092060;27;20492;-48
2021/06/26 02:49:01;;;;;;;17.73;14.10;;;;;;;13.13;81.87;101153.38;5100201;28;20521;-48
2021/06/26 02:51:27;;;;;;;21.30;14.85;;;;;;;13.07;82.69;101150.78;5091947;27;20055;-50
2021/06/26 02:53:53;;;;;;;20.63;14.60;;;;;;;13.00;82.63;101151.69;5083238;28;20379;-48
2021/06/26 02:56:19;;;;;;;18.88;14.52;;;;;;;13.16;81.22;101155.09;5080779;28;20423;-49
2021/06/26 02:58:44;;;;;;;19.27;13.88;;;;;;;12.89;83.50;101154.41;5099825;27;20071;-47
2021/06/26 03:01:10;;;;;;;16.70;13.05;;;;;;;13.28;81.44;101158.50;5098583;28;20043;-48
2021/06/26 03:03:36;;;;;;;20.92;13.95;;;;;;;13.17;82.01;101157.72;5085042;28;20040;-48
2021/06/26 03:06:02;;;;;;;19.95;14.80;;;;;;;12.97;82.77;101165.72;5098702;27;20496;-50
2021/06/26 03:08:27;;;;;;;18.50;14.60;;;;;;;12.94;82.89;101165.75;5100681;28;20041;-49
2021/06/26 03:10:53;;;;;;;21.67;14.88;;;;;;;12.80;84.40;101163.22;5092494;27;20039;-49
2021/06/26 03:13:19;;;;;;;19.90;14.05;;;;;;;12.74;84.73;101166.75;5100088;27;20383;-51
2021/06/26 03:15:45;;;;;;;19.60;13.85;;;;;;;12.90;82.80;101161.41;5084984;27;20118;-49
2021/06/26 03:18:12;;;;;;;19.17;14.02;;;;;;;13.09;81.29;101167.41;5100025;28;20063;-48
2021/06/26 03:20:38;;;;;;;16.75;12.80;;;;;;;13.25;80.88;101173.38;5100216;27;20043;-48
2021/06/26 03:23:04;;;;;;;17.50;13.43;;;;;;;13.13;82.62;101165.63;5100309;27;20038;-48
2021/06/26 03:25:30;;;;;;;17.63;13.05;;;;;;;12.99;83.05;101166.59;5100346;27;20039;-50
2021/06/26 03:27:55;;;;;;;21.48;14.38;;;;;;;12.89;83.68;101171.03;5080000;28;20036;-49
2021/06/26 03:30:21;;;;;;;17.00;13.68;;;;;;;12.78;84.22;101167.59;5101177;27;20504;-49
2021/06/26 03:32:47;;;;;;;19.38;14.55;;;;;;;12.74;84.67;101177.22;5081837;28;20039;-49
2021/06/26 03:35:13;;;;;;;19.63;14.43;;;;;;;12.72;84.78;101178.13;5099121;27;20028;-48
2021/06/26 03:37:39;;;;;;;18.83;13.38;;;;;;;12.80;83.69;101175.47;5100565;27;20063;-49
2021/06/26 03:40:06;;;;;;;20.80;14.00;;;;;;;12.85;83.64;101179.81;5080522;28;20136;-48
2021/06/26 03:42:32;;;;;;;18.95;13.40;;;;;;;12.86;83.90;101178.03;5078926;28;20046;-49
2021/06/26 03:44:58;;;;;;;17.27;12.82;;;;;;;13.05;81.41;101184.06;5100042;28;20048;-48
2021/06/26 03:47:25;;;;;;;19.73;13.70;;;;;;;13.01;81.88;101184.94;5094773;27;20051;-48
2021/06/26 03:49:51;;;;;;;17.98;14.23;;;;;;;13.01;82.33;101184.94;5098274;28;20389;-49
2021/06/26 03:52:17;;;;;;;19.55;13.65;;;;;;;13.09;81.39;101181.38;5101679;27;20035;-49
2021/06/26 03:54:43;;;;;;;16.52;13.10;;;;;;;13.15;81.25;101179.59;5100155;27;20035;-48
2021/06/26 03:57:08;;;;;;;18.65;14.13;;;;;;;13.03;81.53;101191.94;5099847;27;20040;-49
2021/06/26 03:59:34;;;;;;;17.25;13.50;;;;;;;12.86;82.86;101185.91;5059850;28;20045;-48
2021/06/26 04:02:00;;;;;;;20.83;14.13;;;;;;;12.82;83.67;101178.94;5092544;27;20948;-48
2021/06/26 04:04:25;;;;;;;16.55;13.57;;;;;;;13.07;82.93;101175.28;5078340;28;20020;-50
2021/06/26 04:06:51;;;;;;;16.65;13.02;;;;;;;13.19;81.12;101183.94;5081327;28;20124;-51
2021/06/26 04:09:20;;;;;;;18.25;14.00;;;;;;;12.99;82.46;101178.81;5095831;27;20032;-50
2021/06/26 04:11:45;;;;;;;17.48;13.60;;;;;;;13.02;81.73;101176.19;5101200;27;20049;-49
2021/06/26 04:14:11;;;;;;;17.70;13.70;;;;;;;12.96;82.56;101185.00;5098333;28;20032;-48
2021/06/26 04:16:39;;;;;;;17.73;13.45;;;;;;;12.98;81.87;101179.72;5098284;27;20486;-49
2021/06/26 04:19:05;;;;;;;;;;;;;;;13.04;82.49;101179.66;5075616;28;20047;-48
2021/06/26 04:21:31;;;;;;;18.45;13.25;;;;;;;13.09;81.43;101181.38;5097225;28;20462;-48
2021/06/26 04:23:56;;;;;;;21.13;13.88;;;;;;;13.06;82.21;101180.56;5084299;28;20496;-49
2021/06/26 04:26:22;;;;;;;18.75;15.00;;;;;;;13.01;82.43;101184.94;5098777;27;20480;-49
2021/06/26 04:28:48;;;;;;;18.92;14.52;;;;;;;13.01;82.24;101184.94;5096862;27;20023;-48
2021/06/26 04:31:14;;;;;;;21.17;16.13;;;;;;;12.94;83.65;101184.13;5100699;27;20134;-49
2021/06/26 04:33:39;;;;;;;21.30;14.95;;;;;;;12.95;82.97;101176.22;5097081;27;20472;-50
2021/06/26 04:36:11;;;;;;;21.35;14.25;;;;;;;13.28;81.41;101183.88;5099188;27;20042;-49
2021/06/26 04:38:37;;;;;;;20.33;14.77;;;;;;;13.36;81.13;101183.84;5099777;27;20100;-48
2021/06/26 04:41:02;;;;;;;21.23;14.77;;;;;;;13.23;81.62;101176.03;5095803;28;20047;-49
2021/06/26 04:43:28;;;;;;;19.45;15.07;;;;;;;13.11;82.01;101179.63;5097726;27;20114;-49
2021/06/26 04:45:54;;;;;;;19.33;14.77;;;;;;;13.18;82.49;101177.84;5080069;28;20038;-53
2021/06/26 04:48:20;;;;;;;24.38;16.15;;;;;;;13.21;82.24;101182.16;5096289;28;20173;-49
2021/06/26 04:50:46;;;;;;;19.20;14.75;;;;;;;13.23;82.31;101185.66;5079964;28;20081;-51
2021/06/26 04:53:13;;;;;;;20.67;15.15;;;;;;;13.26;82.60;101186.53;5098713;27;20487;-49
2021/06/26 04:55:39;;;;;;;22.38;15.57;;;;;;;13.22;83.81;101184.81;5097908;27;20123;-49
2021/06/26 04:58:06;;;;;;;22.48;16.58;;;;;;;13.15;83.20;101188.34;5099394;28;20571;-48
2021/06/26 05:00:31;;;;;;;18.23;14.18;;;;;;;13.43;80.13;101193.41;5096097;27;20118;-48
2021/06/26 05:02:57;;;;;;;19.27;14.43;;;;;;;13.55;79.86;101190.69;5097279;28;20027;-50
2021/06/26 05:05:23;;;;;;;19.45;13.90;;;;;;;13.73;78.21;101196.66;5095779;27;20135;-48
2021/06/26 05:07:48;;;;;;;19.27;14.90;;;;;;;13.68;81.26;101193.19;5099033;27;20039;-50
2021/06/26 05:10:14;;;;;;;20.05;14.68;;;;;;;13.60;81.31;101188.03;5098144;27;20031;-49
2021/06/26 05:12:44;;;;;;;23.13;15.30;;;;;;;13.59;83.00;101184.53;5077189;28;20035;-49
2021/06/26 05:15:13;;;;;;;18.95;13.93;;;;;;;13.71;79.76;101188.81;5097821;28;20043;-48
2021/06/26 05:17:39;;;;;;;22.00;15.55;;;;;;;13.65;82.66;101194.09;5096421;27;20043;-48
2021/06/26 05:20:06;;;;;;;20.70;15.23;;;;;;;13.78;81.76;101192.25;5081239;28;20400;-49
2021/06/26 05:22:32;;;;;;;17.02;13.25;;;;;;;13.75;80.61;101194.91;5074899;28;20070;-48
2021/06/26 05:24:58;;;;;;;20.70;14.75;;;;;;;13.83;81.57;101190.47;5098181;28;20036;-49
2021/06/26 05:27:25;;;;;;;18.45;14.82;;;;;;;13.84;82.79;101194.81;5096423;28;20091;-50
2021/06/26 05:29:54;;;;;;;19.60;14.60;;;;;;;13.91;81.77;101195.63;5079173;28;20051;-49
2021/06/26 05:32:19;;;;;;;16.92;13.32;;;;;;;13.96;79.89;101189.44;5095635;28;20216;-49
2021/06/26 05:34:45;;;;;;;19.45;14.38;;;;;;;13.96;80.14;101192.06;5094572;28;20483;-48
2021/06/26 05:37:10;;;;;;;18.25;14.88;;;;;;;14.02;78.90;101193.75;5097333;28;20081;-48
2021/06/26 05:39:36;;;;;;;21.50;15.32;;;;;;;14.08;79.70;101195.44;5095806;28;20043;-49
2021/06/26 05:42:02;;;;;;;19.17;14.52;;;;;;;14.13;78.69;101196.25;5076312;28;20044;-50
2021/06/26 05:44:28;;;;;;;20.05;15.48;;;;;;;14.18;78.76;101194.47;5077244;28;20131;-48
2021/06/26 05:46:53;;;;;;;18.08;13.85;;;;;;;14.20;79.42;101194.44;5097273;28;20036;-50
2021/06/26 05:49:19;;;;;;;19.98;15.38;;;;;;;14.27;78.35;101191.75;5111481;27;20040;-49
2021/06/26 05:51:45;;;;;;;19.85;15.30;;;;;;;14.31;78.26;101189.91;5095472;28;20126;-49
2021/06/26 05:54:11;;;;;;;17.80;14.30;;;;;;;14.34;76.55;101194.28;5063930;28;20027;-49
2021/06/26 05:56:37;;;;;;;19.13;14.75;;;;;;;14.33;78.63;101188.16;5097740;28;20040;-48
2021/06/26 05:59:03;;;;;;;19.55;13.50;;;;;;;14.38;77.99;101188.97;5088744;27;20089;-52
2021/06/26 06:01:31;;;;;;;16.80;13.10;;;;;;;14.46;75.16;101194.13;5082103;28;20031;-51
2021/06/26 06:03:57;;;;;;;18.27;14.05;;;;;;;14.67;76.50;101189.53;5063979;28;20035;-49
2021/06/26 06:06:24;;;;;;;19.13;13.48;;;;;;;14.98;74.36;101188.19;5102300;27;20106;-49
2021/06/26 06:08:50;;;;;;;15.68;13.05;;;;;;;14.97;74.99;101190.84;5066793;28;20427;-48
2021/06/26 06:11:16;;;;;;;14.95;12.48;;;;;;;15.01;73.21;101192.56;5114987;27;20563;-49
2021/06/26 06:13:42;;;;;;;17.25;13.35;;;;;;;15.34;73.00;101192.94;5068752;27;20112;-48
2021/06/26 06:16:08;;;;;;;16.25;12.98;;;;;;;15.37;73.29;101194.63;5101660;27;20130;-48
2021/06/26 06:18:34;;;;;;;17.17;12.88;;;;;;;15.38;72.36;101189.34;5075493;28;20350;-48
2021/06/26 06:21:00;;;;;;;15.55;12.90;;;;;;;15.51;72.87;101197.91;5081910;28;20062;-49
2021/06/26 06:23:29;;;;;;;17.10;13.57;;;;;;;15.33;72.39;101199.09;5068511;27;20514;-47
2021/06/26 06:25:55;;;;;;;17.27;14.13;;;;;;;15.30;73.29;101192.09;5082727;28;20032;-48
2021/06/26 06:28:21;;;;;;;19.73;13.80;;;;;;;15.35;74.26;101196.44;5060350;27;20147;-49
2021/06/26 06:30:48;;;;;;;16.95;12.85;;;;;;;15.59;72.72;101190.75;5098678;28;20047;-51
2021/06/26 06:33:17;;;;;;;16.65;13.07;;;;;;;15.57;74.49;101189.03;5099968;27;20088;-48
2021/06/26 06:35:43;;;;;;;18.83;14.20;;;;;;;15.82;73.36;101192.13;5095120;27;20035;-48
2021/06/26 06:38:13;;;;;;;19.35;14.82;;;;;;;15.82;73.06;101187.75;5045804;28;20680;-49
2021/06/26 06:40:40;;;;;;;17.42;14.15;;;;;;;16.07;71.96;101194.31;5076273;28;20171;-50
2021/06/26 06:43:06;;;;;;;19.55;14.38;;;;;;;16.16;71.91;101194.16;5081140;28;20147;-52
2021/06/26 06:45:32;;;;;;;16.48;13.07;;;;;;;16.20;71.46;101198.47;5076348;27;20050;-51
2021/06/26 06:47:58;;;;;;;17.52;14.45;;;;;;;16.28;71.83;101199.19;5080724;28;20097;-49
2021/06/26 06:50:24;;;;;;;22.13;14.57;;;;;;;16.41;71.26;101201.56;5100586;27;20491;-50
2021/06/26 06:52:49;;;;;;;19.25;14.40;;;;;;;16.31;70.42;101196.47;5091502;27;20024;-54
2021/06/26 06:55:15;;;;;;;19.83;14.70;;;;;;;16.34;70.96;101200.81;5079768;28;20032;-53
2021/06/26 06:57:41;;;;;;;23.23;15.98;;;;;;;16.87;69.89;101200.56;5082104;28;20276;-51
2021/06/26 07:00:11;;;;;;;21.15;15.68;;;;;;;16.94;70.49;101203.97;5063321;28;20488;-48
2021/06/26 07:02:39;;;;;;;19.42;15.32;;;;;;;16.90;70.23;101203.16;5080405;28;20035;-51
2021/06/26 07:05:08;;;;;;;21.95;15.68;;;;;;;16.72;69.36;101208.84;5099364;27;20047;-49
2021/06/26 07:07:33;;;;;;;19.20;14.63;;;;;;;16.60;70.44;101202.94;5100133;28;20020;-50
2021/06/26 07:09:59;;;;;;;20.50;16.05;;;;;;;16.73;71.35;101215.88;5100474;27;20634;-51
2021/06/26 07:12:25;;;;;;;20.80;15.52;;;;;;;17.17;70.22;101214.03;5098513;28;20031;-50
2021/06/26 07:14:54;;;;;;;20.60;15.57;;;;;;;17.09;69.21;101210.69;5099327;27;20089;-50
2021/06/26 07:17:21;;;;;;;18.92;15.13;;;;;;;17.24;69.09;101210.34;5100612;28;20034;-50
2021/06/26 07:19:46;;;;;;;21.27;15.88;;;;;;;17.15;69.79;101218.47;5078974;28;20024;-53
2021/06/26 07:22:12;;;;;;;19.17;15.02;;;;;;;16.97;69.10;101215.31;5100355;27;20109;-50
2021/06/26 07:24:37;;;;;;;17.83;14.27;;;;;;;17.07;68.92;101207.19;5097950;28;20399;-55
2021/06/26 07:27:04;;;;;;;19.70;15.68;;;;;;;17.04;68.81;101210.78;5097965;27;20040;-51
2021/06/26 07:29:29;;;;;;;19.08;14.30;;;;;;;17.18;69.31;101207.81;5098552;27;20036;-49
2021/06/26 07:31:55;;;;;;;21.15;16.33;;;;;;;17.18;68.09;101213.09;5079943;28;20049;-52
2021/06/26 07:34:21;;;;;;;20.95;15.45;;;;;;;17.25;68.24;101211.19;5101030;28;20027;-53
2021/06/26 07:36:46;;;;;;;20.00;14.57;;;;;;;17.14;68.76;101204.41;5098243;27;20491;-53
2021/06/26 07:39:12;;;;;;;18.20;15.00;;;;;;;17.43;68.70;101212.50;5082937;28;20063;-53
2021/06/26 07:41:38;;;;;;;19.20;15.80;;;;;;;17.60;68.75;101206.78;5092906;27;20331;-50
2021/06/26 07:44:04;;;;;;;19.83;15.00;;;;;;;17.38;68.18;101206.47;5097978;28;20184;-48
2021/06/26 07:46:30;;;;;;;19.63;16.27;;;;;;;17.47;69.06;101207.13;5099333;28;20102;-51
2021/06/26 07:48:56;;;;;;;18.95;14.82;;;;;;;17.32;72.38;101203.09;5077395;28;20155;-50
2021/06/26 07:51:21;;;;;;;21.00;14.80;;;;;;;17.28;70.75;101198.78;5093561;27;20024;-52
2021/06/26 07:53:47;;;;;;;21.55;16.80;;;;;;;17.34;68.69;101197.75;5076423;28;20110;-54
2021/06/26 07:56:13;;;;;;;20.48;15.45;;;;;;;17.29;69.30;101195.25;5107256;27;20085;-49
2021/06/26 07:58:39;;;;;;;20.73;16.73;;;;;;;18.29;66.79;101202.34;5097684;28;20212;-49
2021/06/26 08:01:05;;;;;;;21.10;17.65;;;;;;;17.87;66.95;101192.00;5058739;28;20469;-53
2021/06/26 08:03:31;;;;;;;19.83;16.38;;;;;;;17.81;67.42;101194.81;5076925;27;20032;-52
2021/06/26 08:05:59;;;;;;;21.52;16.50;;;;;;;18.15;66.70;101193.91;5088644;28;20244;-49
2021/06/26 08:08:25;;;;;;;18.40;14.55;;;;;;;17.96;68.50;101194.44;5074917;27;20083;-49
2021/06/26 08:10:51;;;;;;;18.45;15.18;;;;;;;18.19;66.26;101185.88;5096008;27;20050;-54
2021/06/26 08:13:17;;;;;;;20.92;15.55;;;;;;;17.86;68.42;101188.50;5095252;27;20028;-49
2021/06/26 08:15:44;;;;;;;20.83;15.90;;;;;;;18.36;67.36;101187.16;5079822;28;20496;-48
2021/06/26 08:18:11;;;;;;;20.05;15.60;;;;;;;18.68;65.21;101186.22;5099564;28;20028;-50
2021/06/26 08:20:38;;;;;;;18.63;15.30;;;;;;;18.32;68.07;101188.16;5095669;27;20156;-51
2021/06/26 08:23:04;;;;;;;18.33;15.02;;;;;;;18.26;67.59;101191.81;5077084;28;20462;-50
2021/06/26 08:25:33;;;;;;;19.88;15.82;;;;;;;18.11;66.92;101186.97;5098241;28;20817;-51
2021/06/26 08:27:59;;;;;;;19.25;15.52;;;;;;;18.31;66.69;101187.28;5095315;28;20040;-52
2021/06/26 08:30:25;;;;;;;20.27;15.88;;;;;;;18.71;65.79;101188.75;5097351;28;20668;-49
2021/06/26 08:32:56;;;;;;;18.20;15.32;;;;;;;18.53;65.16;101178.72;5080935;27;20572;-49
2021/06/26 08:35:24;;;;;;;21.88;16.05;;;;;;;19.08;62.97;101185.91;5079665;28;20039;-49
2021/06/26 08:37:52;;;;;;;17.88;14.68;;;;;;;18.90;62.62;101182.94;5082664;28;20055;-49
2021/06/26 08:40:20;;;;;;;17.60;14.25;;;;;;;19.16;63.94;101182.09;5077329;28;20484;-52
2021/06/26 08:42:46;;;;;;;17.00;13.88;;;;;;;19.27;63.87;101176.44;5113065;27;20039;-51
2021/06/26 08:45:16;;;;;;;17.65;14.35;;;;;;;19.20;61.75;101174.91;5098814;27;20051;-51
2021/06/26 08:47:42;;;;;;;18.13;14.80;;;;;;;18.95;63.60;101181.00;5096609;27;20035;-51
2021/06/26 08:50:08;;;;;;;18.88;14.13;;;;;;;18.99;63.81;101182.63;5097618;27;20027;-50
2021/06/26 08:52:34;;;;;;;17.23;13.80;;;;;;;18.81;64.20;101175.25;5087717;27;20526;-50
2021/06/26 08:55:00;;;;;;;16.38;13.45;;;;;;;19.38;63.33;101171.66;5076213;27;20039;-48
2021/06/26 08:57:37;;;;;;;17.75;13.95;;;;;;;19.58;61.97;101164.81;5078147;28;20039;-50
2021/06/26 09:00:07;;;;;;;18.87;14.27;;;;;;;20.12;58.92;101170.00;5092986;27;20551;-48
2021/06/26 09:02:33;;;;;;;18.17;14.68;;;;;;;20.16;59.24;101166.31;5097276;28;20576;-49
2021/06/26 09:04:59;;;;;;;18.13;14.27;;;;;;;20.30;59.58;101169.34;5095048;27;20059;-48
2021/06/26 09:07:33;;;;;;;17.90;15.02;;;;;;;20.41;58.25;101167.16;5080281;28;20053;-52
2021/06/26 09:10:17;;;;;;;15.85;14.10;;;;;;;20.02;60.51;101172.13;5091091;27;20402;-48
2021/06/26 09:12:44;;;;;;;15.85;13.20;;;;;;;20.22;59.26;101166.13;5098756;27;20052;-52
2021/06/26 09:15:21;;;;;;;17.27;14.55;;;;;;;19.92;59.45;101174.25;5098752;28;20032;-52
2021/06/26 09:17:50;;;;;;;18.50;14.52;;;;;;;19.78;60.82;101169.41;5096457;28;20051;-49
2021/06/26 09:20:15;;;;;;;18.13;14.18;;;;;;;20.46;57.98;101174.06;5099019;28;20046;-50
2021/06/26 09:22:46;;;;;;;17.13;13.98;;;;;;;20.67;57.73;101167.94;5104663;27;20023;-49
2021/06/26 09:25:39;;;;;;;17.85;15.50;;;;;;;21.05;57.27;101173.53;5082125;27;20036;-49
2021/06/26 09:28:09;;;;;;;17.17;14.00;;;;;;;20.41;56.82;101179.56;5094213;28;20044;-52
2021/06/26 09:30:43;;;;;;;16.88;13.13;;;;;;;20.77;56.94;101178.22;5098933;28;20051;-49
2021/06/26 09:33:17;;;;;;;16.98;13.57;;;;;;;20.71;58.53;101169.59;5095262;27;20097;-50
2021/06/26 09:35:45;;;;;;;17.15;14.18;;;;;;;21.18;54.66;101173.03;5094989;28;20765;-51
2021/06/26 09:38:20;;;;;;;17.00;13.45;;;;;;;21.22;55.91;101174.66;5082846;28;20032;-53
2021/06/26 09:40:46;;;;;;;19.27;15.15;;;;;;;21.15;57.93;101167.88;5115802;27;20031;-51
2021/06/26 09:43:27;;;;;;;17.90;14.27;;;;;;;20.82;58.42;101168.28;5045888;28;20036;-51
2021/06/26 09:46:07;;;;;;;16.40;14.00;;;;;;;20.60;58.62;101177.06;5096717;28;20032;-49
2021/06/26 09:48:33;;;;;;;16.27;14.23;;;;;;;20.92;57.81;101183.81;5092791;28;20032;-49
2021/06/26 09:50:59;;;;;;;15.35;13.20;;;;;;;20.85;57.57;101170.81;5095933;28;20051;-50
2021/06/26 09:53:25;;;;;;;16.08;13.65;;;;;;;20.80;56.04;101172.81;5099515;28;20035;-50
2021/06/26 09:55:53;;;;;;;17.80;14.80;;;;;;;21.25;54.21;101166.53;5098103;28;20756;-52
2021/06/26 09:58:19;;;;;;;18.55;15.10;;;;;;;20.95;57.61;101177.53;5093834;28;20047;-49
2021/06/26 10:00:46;;;;;;;15.75;13.95;;;;;;;21.00;55.48;101175.50;5096542;28;20028;-50
2021/06/26 10:03:20;;;;;;;15.05;13.15;;;;;;;21.32;54.57;101169.81;5070515;28;20061;-49
2021/06/26 10:05:47;;;;;;;16.05;13.57;;;;;;;21.50;54.24;101168.16;5095079;28;20058;-50
2021/06/26 10:08:15;;;;;;;13.90;11.93;;;;;;;21.41;56.27;101159.66;5096261;28;20032;-50
2021/06/26 10:10:43;;;;;;;17.87;12.77;;;;;;;21.99;51.59;101165.19;5078211;28;20113;-50
2021/06/26 10:13:13;;;;;;;17.88;13.30;;;;;;;22.00;51.01;101161.59;5095632;28;20351;-52
2021/06/26 10:15:39;;;;;;;14.20;12.55;;;;;;;21.96;51.75;101155.56;5077187;28;20035;-50
2021/06/26 10:18:06;;;;;;;13.45;12.02;;;;;;;22.09;52.00;101166.53;5096151;28;20043;-49
2021/06/26 10:20:31;;;;;;;13.95;12.27;;;;;;;21.89;51.28;101159.41;5046037;28;20032;-50
2021/06/26 10:23:00;;;;;;;15.63;13.02;;;;;;;21.98;50.05;101155.50;5096986;28;20099;-49
2021/06/26 10:25:36;;;;;;;13.38;12.00;;;;;;;21.36;54.13;101151.00;5096951;28;20514;-49
2021/06/26 10:28:12;;;;;;;11.88;10.57;;;;;;;21.78;52.99;101151.94;5092974;28;20039;-50
2021/06/26 10:30:38;;;;;;;12.90;9.95;;;;;;;21.70;52.11;101148.75;5077725;28;20820;-49
2021/06/26 10:33:06;;;;;;;13.02;9.52;;;;;;;21.37;51.74;101147.41;5097083;28;20134;-50
2021/06/26 10:35:35;;;;;;;14.82;10.02;;;;;;;21.30;51.37;101151.28;5096857;28;20040;-53
2021/06/26 10:38:02;;;;;;;;;;;;;;;21.41;45.87;101145.50;5099394;28;20044;-52
2021/06/26 10:40:37;;;;;;;10.07;8.40;;;;;;;21.30;46.55;101145.09;5098529;28;19995;-50
2021/06/26 10:43:32;;;;;;;10.32;8.00;;;;;;;21.43;47.87;101144.50;5071568;28;20066;-49
2021/06/26 10:46:12;;;;;;;11.30;8.68;;;;;;;21.75;45.98;101147.59;5086064;27;20389;-50
2021/06/26 10:49:06;;;;;;;11.15;8.63;;;;;;;21.72;45.46;101142.44;5100059;28;20518;-50
2021/06/26 10:51:37;;;;;;;10.98;8.55;;;;;;;21.59;45.78;101139.41;5100348;28;20695;-50
2021/06/26 10:54:14;;;;;;;11.15;9.02;;;;;;;21.39;49.41;101144.69;5098919;27;20146;-50
2021/06/26 10:56:41;;;;;;;12.50;9.47;;;;;;;21.25;50.10;101148.81;5100014;27;20446;-52
2021/06/26 10:59:13;;;;;;;10.32;8.95;;;;;;;21.51;50.14;101138.00;5098662;28;20125;-52
2021/06/26 11:01:39;;;;;;;10.40;9.13;;;;;;;21.97;46.77;101141.31;5098144;28;20539;-49
2021/06/26 11:04:10;;;;;;;13.95;9.73;;;;;;;21.65;48.83;101138.28;5099742;28;20039;-49
2021/06/26 11:06:38;;;;;;;9.80;8.80;;;;;;;21.54;50.29;101138.75;5089339;27;20225;-51
2021/06/26 11:09:12;;;;;;;10.18;8.57;;;;;;;21.77;48.50;101143.06;5096360;28;20488;-49